Terminal Aerodrome Forecast
Issued by NWS Milwaukee/Sullivan, WI

Home | Current Version | Previous Version | Text Only | Print | Product List | Glossary On
Versions: 1 2 3 4 5 6 7 8 9 10 11 12 13 14 15 16 17 18 19 20 21 22 23 24 25 26 27 28 29 30 31 32 33 34 35
000
FTUS43 KMKX 240520
TAFMKE
TAF
KMKE 240520Z 2406/2512 17007KT P6SM VCTS SCT050CB OVC080
     FM240800 18009KT P6SM OVC060
     FM241000 20005KT P6SM VCTS OVC070CB
     FM241600 22012G20KT P6SM BKN200
     FM242000 24014G23KT P6SM SCT100
     FM250100 28006KT P6SM SCT130=

USA.gov is the U.S. government's official web portal to all federal, state and local government web resources and services.